N220PD 57FA-FA08
Flight info
| Callsign | N220PD |
|---|---|
| Flight time | 0h 21m |
| Altitude | 2500 |
| Route | DCT |
| Aircraft | C208/L-SDFGR/C |
Departure
| Time | 2026-04-18 17:04 |
|---|---|
| Airport | Lake X Airport (57FA) |
Arrival
| Time | 2026-04-18 17:25 |
|---|---|
| Airport | Orlampa Inc Airport / Fantasy of Flight (FA08) |
| Time | Latitude | Longitude | Altitude | Speed | Heading |
|---|---|---|---|---|---|
| 2026-04-18 16:54 | 28.21501 | -81.12123 | 71 ft | 0 kts | 168° |
| 2026-04-18 16:58 | 28.21500 | -81.12123 | 72 ft | 0 kts | 167° |
| 2026-04-18 16:58 | 28.21479 | -81.12116 | 71 ft | 5 kts | 163° |
| 2026-04-18 16:58 | 28.21448 | -81.12109 | 71 ft | 3 kts | 175° |
| 2026-04-18 16:59 | 28.21408 | -81.12104 | 71 ft | 7 kts | 168° |
| 2026-04-18 16:59 | 28.21347 | -81.12088 | 71 ft | 9 kts | 169° |
| 2026-04-18 16:59 | 28.21275 | -81.12074 | 71 ft | 10 kts | 168° |
| 2026-04-18 16:59 | 28.21199 | -81.12057 | 71 ft | 11 kts | 170° |
| 2026-04-18 17:00 | 28.21121 | -81.12038 | 71 ft | 11 kts | 169° |
| 2026-04-18 17:00 | 28.21040 | -81.12022 | 71 ft | 11 kts | 168° |
| 2026-04-18 17:00 | 28.20958 | -81.12003 | 71 ft | 12 kts | 168° |
| 2026-04-18 17:00 | 28.20873 | -81.11984 | 71 ft | 11 kts | 168° |
| 2026-04-18 17:01 | 28.20855 | -81.11980 | 71 ft | 0 kts | 129° |
| 2026-04-18 17:01 | 28.20855 | -81.11965 | 71 ft | 4 kts | 81° |
| 2026-04-18 17:01 | 28.20860 | -81.11938 | 71 ft | 1 kts | 66° |
| 2026-04-18 17:01 | 28.20862 | -81.11934 | 71 ft | 0 kts | 43° |
| 2026-04-18 17:02 | 28.20868 | -81.11932 | 71 ft | 0 kts | 4° |
| 2026-04-18 17:02 | 28.20875 | -81.11933 | 71 ft | 0 kts | 350° |
| 2026-04-18 17:03 | 28.20896 | -81.11938 | 71 ft | 19 kts | 347° |
| 2026-04-18 17:03 | 28.21299 | -81.12027 | 72 ft | 91 kts | 348° |
| 2026-04-18 17:03 | 28.21953 | -81.12223 | 356 ft | 101 kts | 331° |
| 2026-04-18 17:03 | 28.22280 | -81.12925 | 589 ft | 114 kts | 263° |
| 2026-04-18 17:04 | 28.22099 | -81.13818 | 834 ft | 120 kts | 251° |
| 2026-04-18 17:04 | 28.21810 | -81.14757 | 1034 ft | 132 kts | 246° |
| 2026-04-18 17:04 | 28.21462 | -81.15731 | 1290 ft | 135 kts | 243° |
| 2026-04-18 17:04 | 28.21059 | -81.16723 | 1477 ft | 143 kts | 245° |
| 2026-04-18 17:05 | 28.20713 | -81.17812 | 1642 ft | 149 kts | 245° |
| 2026-04-18 17:05 | 28.20174 | -81.18802 | 1813 ft | 150 kts | 240° |
| 2026-04-18 17:05 | 28.19791 | -81.19910 | 1989 ft | 152 kts | 247° |
| 2026-04-18 17:05 | 28.19422 | -81.21046 | 2164 ft | 153 kts | 249° |
| 2026-04-18 17:06 | 28.19063 | -81.22189 | 2335 ft | 154 kts | 249° |
| 2026-04-18 17:06 | 28.18699 | -81.23351 | 2426 ft | 160 kts | 249° |
| 2026-04-18 17:06 | 28.18319 | -81.24561 | 2433 ft | 167 kts | 249° |
| 2026-04-18 17:06 | 28.17926 | -81.25813 | 2420 ft | 168 kts | 249° |
| 2026-04-18 17:07 | 28.17524 | -81.27061 | 2417 ft | 168 kts | 251° |
| 2026-04-18 17:07 | 28.17338 | -81.28359 | 2424 ft | 168 kts | 264° |
| 2026-04-18 17:07 | 28.17215 | -81.29678 | 2418 ft | 168 kts | 266° |
| 2026-04-18 17:07 | 28.17134 | -81.30979 | 2415 ft | 167 kts | 265° |
| 2026-04-18 17:08 | 28.17055 | -81.32310 | 2417 ft | 167 kts | 265° |
| 2026-04-18 17:08 | 28.16976 | -81.33613 | 2423 ft | 167 kts | 266° |
| 2026-04-18 17:08 | 28.16891 | -81.34933 | 2423 ft | 167 kts | 265° |
| 2026-04-18 17:08 | 28.16813 | -81.36252 | 2420 ft | 168 kts | 265° |
| 2026-04-18 17:09 | 28.16739 | -81.37560 | 2418 ft | 168 kts | 266° |
| 2026-04-18 17:09 | 28.16658 | -81.38878 | 2419 ft | 168 kts | 265° |
| 2026-04-18 17:09 | 28.16579 | -81.40208 | 2425 ft | 168 kts | 265° |
| 2026-04-18 17:09 | 28.16488 | -81.41532 | 2420 ft | 168 kts | 265° |
| 2026-04-18 17:10 | 28.16416 | -81.42842 | 2424 ft | 168 kts | 265° |
| 2026-04-18 17:10 | 28.16333 | -81.44173 | 2425 ft | 168 kts | 265° |
| 2026-04-18 17:10 | 28.16255 | -81.45507 | 2424 ft | 169 kts | 265° |
| 2026-04-18 17:10 | 28.16176 | -81.46823 | 2426 ft | 168 kts | 265° |
| 2026-04-18 17:11 | 28.16097 | -81.48141 | 2425 ft | 168 kts | 265° |
| 2026-04-18 17:11 | 28.16015 | -81.49466 | 2425 ft | 168 kts | 265° |
| 2026-04-18 17:11 | 28.15990 | -81.50794 | 2428 ft | 168 kts | 274° |
| 2026-04-18 17:11 | 28.16071 | -81.52114 | 2430 ft | 168 kts | 272° |
| 2026-04-18 17:12 | 28.16156 | -81.53421 | 2428 ft | 167 kts | 274° |
| 2026-04-18 17:12 | 28.16240 | -81.54733 | 2428 ft | 166 kts | 274° |
| 2026-04-18 17:12 | 28.16325 | -81.56042 | 2423 ft | 166 kts | 274° |
| 2026-04-18 17:12 | 28.16408 | -81.57352 | 2428 ft | 166 kts | 274° |
| 2026-04-18 17:13 | 28.16492 | -81.58650 | 2429 ft | 166 kts | 274° |
| 2026-04-18 17:13 | 28.16578 | -81.59951 | 2428 ft | 166 kts | 273° |
| 2026-04-18 17:13 | 28.16667 | -81.61268 | 2429 ft | 166 kts | 273° |
| 2026-04-18 17:13 | 28.16752 | -81.62560 | 2432 ft | 166 kts | 274° |
| 2026-04-18 17:14 | 28.16836 | -81.63874 | 2430 ft | 166 kts | 274° |
| 2026-04-18 17:14 | 28.16922 | -81.65177 | 2430 ft | 166 kts | 273° |
| 2026-04-18 17:14 | 28.17006 | -81.66496 | 2426 ft | 166 kts | 272° |
| 2026-04-18 17:14 | 28.17092 | -81.67786 | 2430 ft | 165 kts | 273° |
| 2026-04-18 17:15 | 28.17178 | -81.69096 | 2323 ft | 171 kts | 274° |
| 2026-04-18 17:15 | 28.17273 | -81.70480 | 2152 ft | 177 kts | 273° |
| 2026-04-18 17:15 | 28.17363 | -81.71867 | 1987 ft | 180 kts | 273° |
| 2026-04-18 17:15 | 28.17447 | -81.73284 | 1821 ft | 181 kts | 270° |
| 2026-04-18 17:16 | 28.17434 | -81.74725 | 1653 ft | 181 kts | 269° |
| 2026-04-18 17:16 | 28.17433 | -81.76147 | 1494 ft | 181 kts | 268° |
| 2026-04-18 17:16 | 28.17422 | -81.77544 | 1452 ft | 175 kts | 269° |
| 2026-04-18 17:16 | 28.17411 | -81.78917 | 1449 ft | 170 kts | 268° |
| 2026-04-18 17:17 | 28.17403 | -81.80236 | 1449 ft | 168 kts | 268° |
| 2026-04-18 17:17 | 28.17393 | -81.81557 | 1450 ft | 167 kts | 267° |
| 2026-04-18 17:17 | 28.17126 | -81.82833 | 1453 ft | 165 kts | 249° |
| 2026-04-18 17:17 | 28.16736 | -81.84040 | 1451 ft | 164 kts | 240° |
| 2026-04-18 17:18 | 28.16004 | -81.85006 | 1454 ft | 162 kts | 217° |
| 2026-04-18 17:18 | 28.15116 | -81.85813 | 1451 ft | 161 kts | 211° |
| 2026-04-18 17:18 | 28.14100 | -81.86291 | 1452 ft | 159 kts | 189° |
| 2026-04-18 17:18 | 28.13001 | -81.86329 | 1451 ft | 157 kts | 167° |
| 2026-04-18 17:19 | 28.12039 | -81.85807 | 1455 ft | 154 kts | 135° |
| 2026-04-18 17:19 | 28.11337 | -81.84882 | 1451 ft | 154 kts | 125° |
| 2026-04-18 17:19 | 28.10856 | -81.83791 | 1451 ft | 154 kts | 104° |
| 2026-04-18 17:19 | 28.10867 | -81.82598 | 1448 ft | 146 kts | 72° |
| 2026-04-18 17:20 | 28.11407 | -81.81725 | 1444 ft | 130 kts | 37° |
| 2026-04-18 17:20 | 28.12187 | -81.81311 | 1444 ft | 121 kts | 17° |
| 2026-04-18 17:20 | 28.12984 | -81.81096 | 1446 ft | 113 kts | 15° |
| 2026-04-18 17:20 | 28.13755 | -81.80913 | 1451 ft | 114 kts | 14° |
| 2026-04-18 17:21 | 28.14538 | -81.80732 | 1453 ft | 116 kts | 14° |
| 2026-04-18 17:21 | 28.15345 | -81.80542 | 1453 ft | 117 kts | 14° |
| 2026-04-18 17:21 | 28.16128 | -81.80286 | 1452 ft | 117 kts | 31° |
| 2026-04-18 17:21 | 28.16831 | -81.79775 | 1456 ft | 123 kts | 39° |
| 2026-04-18 17:22 | 28.17525 | -81.79157 | 1446 ft | 129 kts | 41° |
| 2026-04-18 17:22 | 28.18250 | -81.78494 | 1359 ft | 137 kts | 41° |
| 2026-04-18 17:22 | 28.19012 | -81.77791 | 1266 ft | 142 kts | 40° |
| 2026-04-18 17:22 | 28.19943 | -81.77454 | 1178 ft | 148 kts | 353° |
| 2026-04-18 17:23 | 28.20834 | -81.77998 | 1093 ft | 145 kts | 310° |
| 2026-04-18 17:23 | 28.21153 | -81.79022 | 995 ft | 135 kts | 265° |
| 2026-04-18 17:23 | 28.20809 | -81.79944 | 903 ft | 126 kts | 224° |
| 2026-04-18 17:23 | 28.20124 | -81.80481 | 881 ft | 111 kts | 196° |
| 2026-04-18 17:24 | 28.19397 | -81.80622 | 861 ft | 101 kts | 176° |
| 2026-04-18 17:24 | 28.18735 | -81.80505 | 788 ft | 88 kts | 164° |
| 2026-04-18 17:24 | 28.18163 | -81.80333 | 578 ft | 86 kts | 169° |
| 2026-04-18 17:24 | 28.17574 | -81.80373 | 412 ft | 83 kts | 191° |
| 2026-04-18 17:25 | 28.17056 | -81.80643 | 206 ft | 84 kts | 212° |
| 2026-04-18 17:25 | 28.16615 | -81.81009 | 138 ft | 58 kts | 213° |
| 2026-04-18 17:25 | 28.16391 | -81.81207 | 137 ft | 23 kts | 221° |
| 2026-04-18 17:25 | 28.16329 | -81.81266 | 137 ft | 8 kts | 186° |
| 2026-04-18 17:26 | 28.16345 | -81.81227 | 137 ft | 10 kts | 30° |
| 2026-04-18 17:26 | 28.16417 | -81.81177 | 137 ft | 14 kts | 36° |
| 2026-04-18 17:26 | 28.16504 | -81.81107 | 137 ft | 15 kts | 37° |
| 2026-04-18 17:26 | 28.16589 | -81.81038 | 138 ft | 13 kts | 35° |
| 2026-04-18 17:27 | 28.16667 | -81.80972 | 138 ft | 14 kts | 38° |
| 2026-04-18 17:27 | 28.16748 | -81.80904 | 138 ft | 14 kts | 38° |
| 2026-04-18 17:27 | 28.16863 | -81.80898 | 139 ft | 9 kts | 43° |
| 2026-04-18 17:28 | 28.16913 | -81.80857 | 139 ft | 6 kts | 355° |
| 2026-04-18 17:28 | 28.16919 | -81.80876 | 139 ft | 0 kts | 214° |